Time;durP1;ratioP1;P1;durP2;ratioP2;P2;SDS_P1;SDS_P2;PMS_P1;PMS_P2;Temp;Humidity;BMP_temperature;BMP_pressure;BME280_temperature;BME280_humidity;BME280_pressure;Samples;Min_cycle;Max_cycle;Signal;HPM_P1;HPM_P2
2023/08/05 00:00:57;;;;;;;9.45;3.42;;;15.90;99.90;;;;;;5072497;28;20500;-70
2023/08/05 00:03:22;;;;;;;9.25;3.50;;;15.70;99.90;;;;;;5072560;28;20071;-70
2023/08/05 00:05:48;;;;;;;8.48;3.72;;;15.90;99.90;;;;;;5072535;28;20091;-70
2023/08/05 00:08:14;;;;;;;8.18;3.53;;;16.10;99.90;;;;;;5072084;28;20029;-70
2023/08/05 00:10:43;;;;;;;8.00;3.53;;;16.00;99.90;;;;;;5072618;28;20032;-70
2023/08/05 00:13:09;;;;;;;7.88;3.58;;;15.80;99.90;;;;;;5054661;28;20044;-70
2023/08/05 00:15:35;;;;;;;6.63;3.33;;;16.00;99.90;;;;;;5072306;28;20038;-70
2023/08/05 00:18:00;;;;;;;7.32;2.92;;;15.90;99.90;;;;;;5071974;28;20445;-70
2023/08/05 00:20:26;;;;;;;5.18;3.40;;;15.80;99.90;;;;;;5054642;28;20555;-70
2023/08/05 00:22:51;;;;;;;4.28;2.95;;;16.00;99.90;;;;;;5072357;28;20059;-70
2023/08/05 00:25:17;;;;;;;8.05;3.63;;;15.80;99.90;;;;;;5072319;28;20036;-70
2023/08/05 00:27:43;;;;;;;6.32;2.95;;;16.00;99.90;;;;;;5053967;28;20534;-70
2023/08/05 00:30:08;;;;;;;5.28;2.97;;;15.60;99.90;;;;;;5072130;28;20044;-70
2023/08/05 00:32:36;;;;;;;11.20;3.80;;;15.60;99.90;;;;;;5071869;28;20117;-70
2023/08/05 00:35:06;;;;;;;5.10;3.35;;;15.60;99.90;;;;;;5072217;28;20044;-70
2023/08/05 00:37:32;;;;;;;8.35;3.50;;;15.50;99.90;;;;;;5072031;28;20123;-70
2023/08/05 00:39:59;;;;;;;6.15;3.25;;;15.70;99.90;;;;;;5072138;28;20119;-70
2023/08/05 00:42:26;;;;;;;6.32;2.92;;;15.60;99.90;;;;;;5071932;28;20041;-70
2023/08/05 00:44:52;;;;;;;9.13;3.78;;;15.50;99.90;;;;;;5071904;28;20419;-69
2023/08/05 00:47:18;;;;;;;4.80;3.45;;;15.50;99.90;;;;;;5053632;28;20036;-70
2023/08/05 00:49:45;;;;;;;11.10;4.00;;;15.60;99.90;;;;;;5054021;28;20040;-70
2023/08/05 00:52:13;;;;;;;5.70;3.13;;;15.70;99.90;;;;;;5053925;28;20087;-70
2023/08/05 00:54:39;;;;;;;6.53;3.40;;;15.60;99.90;;;;;;5053837;28;20507;-70
2023/08/05 00:57:05;;;;;;;5.15;3.35;;;15.70;99.90;;;;;;5071457;28;20072;-70
2023/08/05 00:59:31;;;;;;;4.53;2.70;;;15.40;99.90;;;;;;5053716;28;20117;-70
2023/08/05 01:01:57;;;;;;;7.07;3.33;;;15.70;99.90;;;;;;5071938;28;20036;-70
2023/08/05 01:04:23;;;;;;;8.07;3.50;;;15.50;99.90;;;;;;5071891;28;20523;-70
2023/08/05 01:06:49;;;;;;;5.22;2.95;;;15.80;99.90;;;;;;5071479;28;20420;-70
2023/08/05 01:09:15;;;;;;;6.38;2.90;;;15.40;99.90;;;;;;5053463;28;20453;-70
2023/08/05 01:11:41;;;;;;;7.57;4.07;;;15.50;99.90;;;;;;5053599;28;20040;-70
2023/08/05 01:14:06;;;;;;;6.90;3.50;;;15.40;99.90;;;;;;5053530;28;20041;-70
2023/08/05 01:16:32;;;;;;;6.82;3.25;;;15.70;99.90;;;;;;5071650;28;20036;-70
2023/08/05 01:18:59;;;;;;;8.70;3.45;;;15.40;99.90;;;;;;5071587;28;20111;-70
2023/08/05 01:21:51;;;;;;;6.28;3.40;;;15.70;99.90;;;;;;5071699;28;20051;-70
2023/08/05 01:24:27;;;;;;;10.02;4.28;;;15.60;99.90;;;;;;5056138;28;20071;-70
2023/08/05 01:26:54;;;;;;;6.82;3.85;;;15.60;99.90;;;;;;5071095;28;20052;-70
2023/08/05 01:29:20;;;;;;;4.80;3.35;;;15.30;99.90;;;;;;5053490;28;20051;-69
2023/08/05 01:31:49;;;;;;;5.57;3.22;;;15.30;99.90;;;;;;5053452;28;20044;-69
2023/08/05 01:34:15;;;;;;;7.65;3.25;;;15.30;99.90;;;;;;5071403;28;20040;-69
2023/08/05 01:36:40;;;;;;;8.55;3.60;;;15.50;99.90;;;;;;5071249;28;20036;-70
2023/08/05 01:39:06;;;;;;;4.85;2.67;;;15.20;99.90;;;;;;5071146;28;20036;-70
2023/08/05 01:41:32;;;;;;;5.82;3.17;;;15.40;99.90;;;;;;5071557;28;20047;-70
2023/08/05 01:43:57;;;;;;;7.72;3.38;;;15.50;99.90;;;;;;5071478;28;20124;-70
2023/08/05 01:46:23;;;;;;;5.90;3.35;;;15.40;99.90;;;;;;5071237;28;20040;-70
2023/08/05 01:48:48;;;;;;;8.35;3.10;;;15.30;99.90;;;;;;5071133;28;20095;-69
2023/08/05 01:51:14;;;;;;;9.50;3.63;;;15.30;99.90;;;;;;5071246;28;20044;-70
2023/08/05 01:53:39;;;;;;;6.65;3.50;;;15.30;99.90;;;;;;5053271;28;20495;-70
2023/08/05 01:56:05;;;;;;;8.00;3.28;;;15.40;99.90;;;;;;5071333;28;20032;-70
2023/08/05 01:58:30;;;;;;;5.68;3.30;;;15.40;99.90;;;;;;5071107;28;20087;-70
2023/08/05 02:00:56;;;;;;;8.85;3.30;;;15.10;99.90;;;;;;5071302;28;20043;-69
2023/08/05 02:03:22;;;;;;;5.72;3.25;;;15.20;99.90;;;;;;5071186;28;20450;-70
2023/08/05 02:05:47;;;;;;;9.75;3.42;;;15.20;99.90;;;;;;5071099;28;20040;-70
2023/08/05 02:08:13;;;;;;;6.63;3.63;;;15.30;99.90;;;;;;5070549;28;20029;-70
2023/08/05 02:10:40;;;;;;;8.60;2.85;;;15.20;99.90;;;;;;5053327;28;20040;-70
2023/08/05 02:13:06;;;;;;;11.25;3.17;;;15.00;99.90;;;;;;5071152;28;20036;-70
2023/08/05 02:15:32;;;;;;;4.05;2.60;;;15.10;99.90;;;;;;5071936;28;20050;-70
2023/08/05 02:17:58;;;;;;;6.38;3.22;;;15.10;99.90;;;;;;5074397;28;20518;-70
2023/08/05 02:20:23;;;;;;;5.47;3.28;;;14.80;99.90;;;;;;5074690;28;20456;-70
2023/08/05 02:22:49;;;;;;;5.78;3.00;;;14.80;99.90;;;;;;5074510;28;20051;-70
2023/08/05 02:25:14;;;;;;;6.10;3.22;;;14.80;99.90;;;;;;5074749;28;20040;-70
2023/08/05 02:27:40;;;;;;;8.50;2.70;;;14.60;99.90;;;;;;5074320;28;20036;-70
2023/08/05 02:30:08;;;;;;;4.20;2.67;;;14.60;99.90;;;;;;5074620;28;20498;-70
2023/08/05 02:32:33;;;;;;;7.82;3.45;;;14.50;99.90;;;;;;5056530;28;20043;-70
2023/08/05 02:35:00;;;;;;;5.57;3.17;;;14.70;99.90;;;;;;5074456;28;20131;-69
2023/08/05 02:37:25;;;;;;;6.60;2.70;;;14.50;99.90;;;;;;5055959;28;20538;-70
2023/08/05 02:39:51;;;;;;;9.85;2.92;;;14.50;99.90;;;;;;5074523;28;20033;-70
2023/08/05 02:42:17;;;;;;;9.02;4.05;;;14.70;99.90;;;;;;5074426;28;20047;-70
2023/08/05 02:44:42;;;;;;;6.53;3.65;;;14.50;99.90;;;;;;5074386;28;20068;-70
2023/08/05 02:47:08;;;;;;;6.45;3.67;;;14.50;99.90;;;;;;5039334;28;20043;-69
2023/08/05 02:49:33;;;;;;;10.30;3.42;;;14.60;99.90;;;;;;5074017;28;20037;-70
2023/08/05 02:51:59;;;;;;;4.57;3.13;;;14.30;99.90;;;;;;5073968;28;20036;-70
2023/08/05 02:54:24;;;;;;;7.95;3.47;;;14.40;99.90;;;;;;5056068;28;20530;-70
2023/08/05 02:56:50;;;;;;;6.00;3.58;;;14.40;99.90;;;;;;5074187;28;20045;-69
2023/08/05 02:59:16;;;;;;;6.90;2.95;;;14.20;99.90;;;;;;5055919;28;20044;-69
2023/08/05 03:01:42;;;;;;;6.93;3.40;;;14.50;99.90;;;;;;5055836;28;20059;-70
2023/08/05 03:04:08;;;;;;;8.73;3.40;;;14.50;99.90;;;;;;5073837;28;20044;-70
2023/08/05 03:06:34;;;;;;;5.28;3.72;;;14.50;99.90;;;;;;5096818;22;20051;-71
2023/08/05 03:09:00;;;;;;;4.80;3.38;;;14.40;99.90;;;;;;5055098;28;20028;-71
2023/08/05 03:11:28;;;;;;;10.95;4.93;;;14.10;99.90;;;;;;5055628;28;20633;-70
2023/08/05 03:13:54;;;;;;;4.25;3.40;;;14.10;99.90;;;;;;5073630;28;20040;-70
2023/08/05 03:16:20;;;;;;;5.38;3.80;;;14.20;99.90;;;;;;5055404;28;20043;-70
2023/08/05 03:18:46;;;;;;;8.43;3.97;;;14.10;99.90;;;;;;5056385;28;20040;-70
2023/08/05 03:21:11;;;;;;;7.93;4.03;;;14.20;99.90;;;;;;5074266;28;20090;-71
2023/08/05 03:23:37;;;;;;;7.88;3.50;;;14.20;99.90;;;;;;5073420;28;20407;-70
2023/08/05 03:26:02;;;;;;;8.88;3.60;;;14.00;99.90;;;;;;5073496;28;20424;-70
2023/08/05 03:28:28;;;;;;;6.40;3.75;;;14.00;99.90;;;;;;5072082;28;20040;-71
2023/08/05 03:30:54;;;;;;;7.03;3.67;;;14.10;99.90;;;;;;5054640;28;20036;-70
2023/08/05 03:33:19;;;;;;;5.57;3.35;;;14.10;99.90;;;;;;5073245;28;20469;-70
2023/08/05 03:35:45;;;;;;;7.90;3.40;;;13.90;99.90;;;;;;5072930;28;20036;-71
2023/08/05 03:38:14;;;;;;;5.70;3.25;;;14.00;99.90;;;;;;5054850;28;20444;-70
2023/08/05 03:40:40;;;;;;;4.75;3.28;;;13.80;99.90;;;;;;5073031;28;20037;-70
2023/08/05 03:43:05;;;;;;;9.65;3.55;;;13.80;99.90;;;;;;5055055;28;20070;-71
2023/08/05 03:45:31;;;;;;;5.47;3.35;;;14.10;99.90;;;;;;5054971;28;20170;-70
2023/08/05 03:47:57;;;;;;;10.02;4.10;;;14.20;99.90;;;;;;5054570;28;20397;-70
2023/08/05 03:50:22;;;;;;;8.90;4.25;;;14.20;99.90;;;;;;5072853;28;20128;-71
2023/08/05 03:52:48;;;;;;;6.75;3.35;;;14.00;99.90;;;;;;5054511;28;20040;-71
2023/08/05 03:55:14;;;;;;;7.13;3.10;;;13.90;99.90;;;;;;5072061;28;20551;-70
2023/08/05 03:57:40;;;;;;;4.13;3.15;;;14.20;99.90;;;;;;5037626;28;20066;-70
2023/08/05 04:00:11;;;;;;;6.70;3.53;;;14.00;99.90;;;;;;5054382;28;20044;-71
2023/08/05 04:02:37;;;;;;;4.07;3.15;;;14.00;99.90;;;;;;5054620;28;20568;-70
2023/08/05 04:05:06;;;;;;;9.00;3.58;;;14.10;99.90;;;;;;5072346;28;20119;-71
2023/08/05 04:07:31;;;;;;;8.40;3.35;;;13.90;99.90;;;;;;5071862;28;20044;-71
2023/08/05 04:09:57;;;;;;;8.13;4.05;;;14.00;99.90;;;;;;5053931;28;20450;-70
2023/08/05 04:12:23;;;;;;;8.73;4.38;;;14.20;99.90;;;;;;5071925;28;20048;-71
2023/08/05 04:14:50;;;;;;;5.20;3.53;;;14.00;99.90;;;;;;5051605;28;20408;-70
2023/08/05 04:17:16;;;;;;;6.22;3.63;;;14.00;99.90;;;;;;5051118;28;20381;-71
2023/08/05 04:19:42;;;;;;;5.30;3.33;;;14.30;99.90;;;;;;5062761;28;20106;-70
2023/08/05 04:22:08;;;;;;;4.10;3.10;;;14.20;99.90;;;;;;5072511;28;20032;-70
2023/08/05 04:24:35;;;;;;;8.02;3.72;;;14.10;99.90;;;;;;5071341;28;20522;-70
2023/08/05 04:27:01;;;;;;;7.53;3.22;;;14.10;99.90;;;;;;5072008;28;20496;-70
2023/08/05 04:29:27;;;;;;;4.50;2.97;;;14.10;99.90;;;;;;5072570;28;20037;-70
2023/08/05 04:31:53;;;;;;;6.18;3.90;;;14.10;99.90;;;;;;5070856;28;20101;-71
2023/08/05 04:34:19;;;;;;;8.63;4.25;;;14.40;99.90;;;;;;5071198;28;20086;-70
2023/08/05 04:36:49;;;;;;;8.55;4.18;;;14.30;99.90;;;;;;5071977;28;20444;-70
2023/08/05 04:39:14;;;;;;;5.53;3.50;;;14.40;99.90;;;;;;5070425;28;20043;-70
2023/08/05 04:41:40;;;;;;;8.13;4.03;;;14.10;99.90;;;;;;5070750;28;20040;-70
2023/08/05 04:44:06;;;;;;;6.55;3.75;;;14.20;99.90;;;;;;5070692;28;20119;-70
2023/08/05 04:46:31;;;;;;;5.72;3.42;;;14.40;99.90;;;;;;5070336;28;20119;-70
2023/08/05 04:48:58;;;;;;;7.18;3.17;;;14.20;99.90;;;;;;5070457;28;20067;-70
2023/08/05 04:51:24;;;;;;;7.95;3.97;;;14.20;99.90;;;;;;5071884;28;20056;-71
2023/08/05 04:53:49;;;;;;;5.35;3.63;;;14.40;99.90;;;;;;5071662;28;20029;-70
2023/08/05 04:56:16;;;;;;;6.95;3.75;;;14.40;99.90;;;;;;5071803;28;20044;-70
2023/08/05 04:58:41;;;;;;;7.32;4.00;;;14.30;99.90;;;;;;5070108;28;20036;-70
2023/08/05 05:01:07;;;;;;;7.78;3.55;;;14.30;99.90;;;;;;5070224;28;20565;-70
2023/08/05 05:03:33;;;;;;;6.78;3.97;;;14.50;99.90;;;;;;5071933;28;20445;-70
2023/08/05 05:05:58;;;;;;;7.85;4.00;;;14.70;99.90;;;;;;5071526;28;20036;-70
2023/08/05 05:08:24;;;;;;;6.28;4.07;;;14.70;99.90;;;;;;5070117;28;20097;-70
2023/08/05 05:10:49;;;;;;;7.05;4.20;;;14.80;99.90;;;;;;5071551;28;20093;-70
2023/08/05 05:13:15;;;;;;;6.40;3.70;;;14.70;99.90;;;;;;5070287;28;20041;-70
2023/08/05 05:15:41;;;;;;;8.65;3.97;;;14.80;99.90;;;;;;5071452;28;20044;-70
2023/08/05 05:18:06;;;;;;;5.63;3.70;;;14.80;99.90;;;;;;5071241;28;20072;-70
2023/08/05 05:20:35;;;;;;;9.98;4.32;;;14.90;99.90;;;;;;5072922;28;20044;-70
2023/08/05 05:23:00;;;;;;;7.78;4.10;;;14.80;99.90;;;;;;5072400;28;20036;-71
2023/08/05 05:25:26;;;;;;;5.30;3.38;;;14.80;99.90;;;;;;5071621;28;20044;-70
2023/08/05 05:27:51;;;;;;;10.60;4.07;;;14.90;99.90;;;;;;5071316;28;20056;-71
2023/08/05 05:30:17;;;;;;;8.13;4.13;;;15.00;99.90;;;;;;5070166;28;20045;-71
2023/08/05 05:32:42;;;;;;;7.18;3.85;;;15.10;99.90;;;;;;5071330;28;20040;-70
2023/08/05 05:35:08;;;;;;;7.60;4.25;;;14.90;99.90;;;;;;5071494;28;20044;-71
2023/08/05 05:37:34;;;;;;;6.22;3.83;;;15.00;99.90;;;;;;5071164;28;20546;-71
2023/08/05 05:39:59;;;;;;;7.38;3.95;;;15.00;99.90;;;;;;5070369;28;20117;-70
2023/08/05 05:42:25;;;;;;;5.07;3.60;;;15.00;99.90;;;;;;5071425;28;20518;-70
2023/08/05 05:44:52;;;;;;;7.65;4.55;;;15.10;99.90;;;;;;5071239;28;20119;-70
2023/08/05 05:47:19;;;;;;;7.30;4.05;;;15.50;99.90;;;;;;5071022;28;20119;-70
2023/08/05 05:49:44;;;;;;;12.15;4.72;;;15.70;99.90;;;;;;5071177;28;20695;-71
2023/08/05 05:52:13;;;;;;;7.60;3.70;;;15.90;99.90;;;;;;5073441;28;20048;-70
2023/08/05 05:54:38;;;;;;;5.43;3.38;;;16.10;99.90;;;;;;5075139;28;20048;-70
2023/08/05 05:57:04;;;;;;;6.85;3.78;;;16.50;99.90;;;;;;5073897;28;20124;-71
2023/08/05 05:59:30;;;;;;;5.93;3.25;;;16.20;99.90;;;;;;5075135;28;20036;-70
2023/08/05 06:01:55;;;;;;;3.75;3.17;;;16.20;99.90;;;;;;5073824;28;20502;-71
2023/08/05 06:04:24;;;;;;;5.13;2.53;;;16.30;99.90;;;;;;5075234;28;20044;-71
2023/08/05 06:06:50;;;;;;;5.03;2.85;;;16.20;99.90;;;;;;5074761;28;20520;-71
2023/08/05 06:09:15;;;;;;;5.80;2.80;;;16.30;99.90;;;;;;5073503;28;20129;-71
2023/08/05 06:11:41;;;;;;;8.80;3.20;;;16.10;99.90;;;;;;5073623;28;20407;-71
2023/08/05 06:14:06;;;;;;;7.45;3.03;;;16.20;99.90;;;;;;5074849;28;20415;-71
2023/08/05 06:16:32;;;;;;;6.82;2.95;;;16.30;99.90;;;;;;5073588;28;20044;-72
2023/08/05 06:18:57;;;;;;;5.30;3.42;;;16.60;99.90;;;;;;5056631;28;20120;-71
2023/08/05 06:21:23;;;;;;;7.25;3.17;;;17.10;99.90;;;;;;5074891;28;20458;-71
2023/08/05 06:23:49;;;;;;;4.63;3.20;;;17.10;99.90;;;;;;5073743;28;20058;-71
2023/08/05 06:26:14;;;;;;;4.05;2.80;;;17.40;99.90;;;;;;5074798;28;20111;-73
2023/08/05 06:28:40;;;;;;;7.10;2.42;;;17.20;99.90;;;;;;5074327;28;20040;-70
2023/08/05 06:31:05;;;;;;;4.93;2.30;;;17.80;99.90;;;;;;5074617;28;20036;-71
2023/08/05 06:33:31;;;;;;;4.05;2.40;;;17.90;99.90;;;;;;5074674;28;20403;-71
2023/08/05 06:35:57;;;;;;;4.45;2.42;;;18.50;99.90;;;;;;5074560;28;20040;-70
2023/08/05 06:38:24;;;;;;;3.85;2.20;;;18.80;99.90;;;;;;5072686;28;20041;-71
2023/08/05 06:40:51;;;;;;;9.35;2.65;;;19.10;99.90;;;;;;5074340;28;20076;-71
2023/08/05 06:43:17;;;;;;;5.32;2.45;;;19.20;99.90;;;;;;5074164;28;20041;-71
2023/08/05 06:45:42;;;;;;;3.92;2.13;;;19.20;99.90;;;;;;5074455;28;20182;-71
2023/08/05 06:48:08;;;;;;;3.10;1.98;;;19.40;99.90;;;;;;5073627;28;20044;-71
2023/08/05 06:50:34;;;;;;;3.13;2.17;;;19.40;99.90;;;;;;5074239;28;20419;-71
2023/08/05 06:52:59;;;;;;;5.85;1.90;;;19.30;99.90;;;;;;5073836;28;20048;-71
2023/08/05 06:55:25;;;;;;;3.45;2.03;;;19.20;99.90;;;;;;5073938;28;20047;-71
2023/08/05 06:57:50;;;;;;;5.15;1.70;;;19.30;99.90;;;;;;5073449;28;20040;-71
2023/08/05 07:00:19;;;;;;;4.63;1.83;;;19.60;99.90;;;;;;5074025;28;20102;-71
2023/08/05 07:02:44;;;;;;;2.58;1.83;;;19.80;99.90;;;;;;5073572;28;20570;-72
2023/08/05 07:05:10;;;;;;;3.97;2.03;;;19.60;99.90;;;;;;5073880;28;20072;-71
2023/08/05 07:07:35;;;;;;;3.28;1.75;;;19.60;99.90;;;;;;5055125;28;20055;-71
2023/08/05 07:10:03;;;;;;;2.63;1.90;;;19.70;99.90;;;;;;5073683;28;20127;-71
2023/08/05 07:12:29;;;;;;;3.47;2.13;;;19.80;99.90;;;;;;5073443;28;20061;-71
2023/08/05 07:14:55;;;;;;;4.13;1.90;;;20.00;99.90;;;;;;5070400;28;20033;-72
2023/08/05 07:17:20;;;;;;;4.20;1.67;;;20.40;99.90;;;;;;5054277;28;20044;-71
2023/08/05 07:19:46;;;;;;;3.75;1.75;;;20.80;99.90;;;;;;5073071;28;20034;-71
2023/08/05 07:22:12;;;;;;;4.22;1.85;;;21.00;99.90;;;;;;5064296;28;20067;-71
2023/08/05 07:24:37;;;;;;;3.17;1.60;;;20.70;99.90;;;;;;5055585;28;20044;-71
2023/08/05 07:27:04;;;;;;;3.25;1.83;;;20.30;99.90;;;;;;5066914;28;20036;-71
2023/08/05 07:29:29;;;;;;;7.68;2.90;;;20.10;99.90;;;;;;5073514;28;20037;-71
2023/08/05 07:31:55;;;;;;;4.22;1.63;;;19.70;99.90;;;;;;5073019;28;20044;-71
2023/08/05 07:34:20;;;;;;;6.28;1.70;;;19.50;99.90;;;;;;5072961;28;20029;-70
2023/08/05 07:36:46;;;;;;;3.78;1.88;;;19.50;99.90;;;;;;5059598;28;20492;-71
2023/08/05 07:39:12;;;;;;;3.97;1.77;;;19.30;99.90;;;;;;5072333;28;20408;-71
2023/08/05 07:41:37;;;;;;;5.50;1.83;;;19.20;99.90;;;;;;5072870;28;20143;-71
2023/08/05 07:44:04;;;;;;;5.65;1.70;;;19.10;99.90;;;;;;5071615;28;20039;-71
2023/08/05 07:46:31;;;;;;;3.85;1.58;;;19.00;99.90;;;;;;5072812;28;20033;-70
2023/08/05 07:48:59;;;;;;;6.53;1.98;;;19.10;99.90;;;;;;5072087;28;20029;-71
2023/08/05 07:51:25;;;;;;;3.80;1.90;;;19.20;99.90;;;;;;5058156;28;20072;-70
2023/08/05 07:53:53;;;;;;;6.35;1.90;;;19.30;99.90;;;;;;5072785;28;20091;-71
2023/08/05 07:56:19;;;;;;;4.82;1.88;;;19.90;99.90;;;;;;5062833;28;20129;-71
2023/08/05 07:58:46;;;;;;;4.82;1.70;;;20.00;99.90;;;;;;5060072;28;20139;-71
2023/08/05 08:01:19;;;;;;;3.30;1.98;;;20.10;99.90;;;;;;5070736;28;20094;-71
2023/08/05 08:03:45;;;;;;;3.50;1.63;;;20.10;99.90;;;;;;5072430;28;20052;-71
2023/08/05 08:06:15;;;;;;;2.92;1.80;;;20.10;99.90;;;;;;5070485;28;20050;-71
2023/08/05 08:08:44;;;;;;;2.92;2.13;;;19.90;99.90;;;;;;5065926;28;20108;-71
2023/08/05 08:11:10;;;;;;;5.22;1.75;;;19.80;99.90;;;;;;5052406;28;20029;-71
2023/08/05 08:13:36;;;;;;;3.38;2.17;;;19.70;99.90;;;;;;5066525;28;20036;-71
2023/08/05 08:16:02;;;;;;;5.05;1.73;;;19.90;99.90;;;;;;5069974;28;20040;-71
2023/08/05 08:18:28;;;;;;;2.47;1.58;;;20.20;99.90;;;;;;5072058;28;20037;-72
2023/08/05 08:20:53;;;;;;;3.20;1.48;;;20.30;99.90;;;;;;5067533;28;20033;-71
2023/08/05 08:23:19;;;;;;;4.22;2.08;;;20.30;99.90;;;;;;5070866;28;20479;-71
2023/08/05 08:25:45;;;;;;;3.10;1.63;;;20.30;99.90;;;;;;5072213;28;20063;-70
2023/08/05 08:28:11;;;;;;;2.95;1.55;;;20.20;99.90;;;;;;5067803;28;20496;-70
2023/08/05 08:30:36;;;;;;;4.20;2.30;;;20.00;99.90;;;;;;5072191;28;20036;-70
2023/08/05 08:33:03;;;;;;;4.57;1.75;;;19.90;99.90;;;;;;5071690;28;20032;-71
2023/08/05 08:35:29;;;;;;;3.45;1.65;;;19.80;99.90;;;;;;5069650;28;20036;-70
2023/08/05 08:37:54;;;;;;;3.67;1.70;;;19.70;99.90;;;;;;5040883;28;20400;-71
2023/08/05 08:40:20;;;;;;;2.20;1.35;;;19.70;99.90;;;;;;5055134;28;20127;-70
2023/08/05 08:42:47;;;;;;;2.70;1.70;;;19.70;99.90;;;;;;5069341;28;20119;-70
2023/08/05 08:45:15;;;;;;;6.15;1.70;;;19.70;99.90;;;;;;5071770;28;20040;-70
2023/08/05 08:47:42;;;;;;;2.65;2.20;;;19.50;99.90;;;;;;5068156;28;20028;-70
2023/08/05 08:50:09;;;;;;;4.85;1.80;;;19.50;99.90;;;;;;5071357;28;20111;-70
2023/08/05 08:52:36;;;;;;;4.00;1.77;;;19.50;99.90;;;;;;5069976;28;20123;-70
2023/08/05 08:55:06;;;;;;;5.82;2.10;;;19.40;99.90;;;;;;5071804;28;20040;-70
2023/08/05 08:57:31;;;;;;;3.42;2.30;;;19.50;99.90;;;;;;5071205;28;20055;-70
2023/08/05 08:59:57;;;;;;;2.72;1.88;;;19.50;99.90;;;;;;5062204;28;20512;-70
2023/08/05 09:02:26;;;;;;;4.40;1.70;;;19.50;99.90;;;;;;5070682;28;20040;-70
2023/08/05 09:04:55;;;;;;;2.53;1.92;;;19.70;99.90;;;;;;5071281;28;20460;-70
2023/08/05 09:07:26;;;;;;;2.85;1.80;;;19.90;99.90;;;;;;5081085;22;20538;-69
2023/08/05 09:09:53;;;;;;;3.30;1.58;;;20.00;99.90;;;;;;5071720;28;20458;-69
2023/08/05 09:12:19;;;;;;;3.22;1.48;;;20.10;99.90;;;;;;5069426;28;20496;-70
2023/08/05 09:14:44;;;;;;;4.55;1.70;;;20.30;99.90;;;;;;5071487;28;20115;-69
2023/08/05 09:17:14;;;;;;;3.65;1.48;;;20.70;99.90;;;;;;5070911;28;20403;-69
2023/08/05 09:19:42;;;;;;;4.10;1.38;;;21.20;99.90;;;;;;5069404;28;20068;-69
2023/08/05 09:22:08;;;;;;;3.22;1.70;;;21.70;99.90;;;;;;5053372;28;20116;-69
2023/08/05 09:24:34;;;;;;;4.18;1.67;;;21.70;99.90;;;;;;5071383;28;20192;-69
2023/08/05 09:27:00;;;;;;;3.72;1.50;;;21.40;99.90;;;;;;5068739;28;20055;-69
2023/08/05 09:29:27;;;;;;;3.25;1.63;;;21.30;99.90;;;;;;5073544;28;20071;-69
2023/08/05 09:31:57;;;;;;;6.40;1.55;;;21.40;99.90;;;;;;5062556;28;20115;-69
2023/08/05 09:34:38;;;;;;;2.80;1.90;;;21.60;99.90;;;;;;5075136;28;20174;-70
2023/08/05 09:37:07;;;;;;;2.20;1.85;;;22.00;99.90;;;;;;5074375;28;20107;-70
2023/08/05 09:39:46;;;;;;;2.40;1.58;;;22.40;99.90;;;;;;5076027;28;20036;-69
2023/08/05 09:42:24;;;;;;;4.45;1.63;;;22.50;99.20;;;;;;5070933;28;20403;-69
2023/08/05 09:44:53;;;;;;;4.25;2.65;;;22.50;99.70;;;;;;5075433;28;20040;-69
2023/08/05 09:47:25;;;;;;;2.92;1.80;;;22.60;99.80;;;;;;5073906;28;20086;-69
2023/08/05 09:49:51;;;;;;;5.70;2.78;;;22.70;99.90;;;;;;5053110;28;20048;-69
2023/08/05 09:52:23;;;;;;;12.05;4.40;;;22.70;99.90;;;;;;5053285;28;20040;-69
2023/08/05 09:54:59;;;;;;;17.03;6.50;;;22.50;98.60;;;;;;5073742;28;20048;-69
2023/08/05 09:57:25;;;;;;;13.75;5.57;;;22.30;97.90;;;;;;5070956;28;20278;-69
2023/08/05 09:59:53;;;;;;;6.50;3.03;;;22.10;98.50;;;;;;5054999;28;20096;-69
2023/08/05 10:02:25;;;;;;;3.47;1.70;;;22.00;98.90;;;;;;5053807;28;20041;-70
2023/08/05 10:04:53;;;;;;;3.15;1.70;;;21.80;98.10;;;;;;5055086;28;20447;-69
2023/08/05 10:07:23;;;;;;;2.60;1.42;;;21.60;98.10;;;;;;5054387;28;20523;-70
2023/08/05 10:09:49;;;;;;;1.70;1.20;;;21.60;98.70;;;;;;5053680;28;20404;-70
2023/08/05 10:12:21;;;;;;;2.97;1.45;;;21.90;98.60;;;;;;5063330;28;20091;-69
2023/08/05 10:14:51;;;;;;;2.50;1.40;;;21.80;98.60;;;;;;5054981;28;20060;-69
2023/08/05 10:17:18;;;;;;;5.30;1.60;;;21.50;98.30;;;;;;5054532;28;20115;-70
2023/08/05 10:19:49;;;;;;;7.50;1.67;;;21.30;98.40;;;;;;5054667;28;20421;-70
2023/08/05 10:22:21;;;;;;;3.78;1.65;;;21.30;98.40;;;;;;5054916;28;20076;-70
2023/08/05 10:24:56;;;;;;;1.90;1.38;;;21.10;98.00;;;;;;5054896;28;20045;-70
2023/08/05 10:27:43;;;;;;;4.18;1.42;;;21.10;97.80;;;;;;5036300;28;20049;-70
2023/08/05 10:30:14;;;;;;;3.50;1.20;;;20.70;98.10;;;;;;5057895;28;20119;-70
2023/08/05 10:32:56;;;;;;;1.42;1.02;;;20.70;98.30;;;;;;5074484;28;20114;-69
2023/08/05 10:35:30;;;;;;;2.97;1.70;;;20.80;97.60;;;;;;5074468;28;20090;-69
2023/08/05 10:38:18;;;;;;;2.35;1.50;;;20.90;98.60;;;;;;5072352;28;20107;-69
2023/08/05 10:40:51;;;;;;;3.72;1.45;;;21.10;98.20;;;;;;5066079;28;20389;-69
2023/08/05 10:43:38;;;;;;;2.40;1.77;;;21.20;98.10;;;;;;5072851;28;20043;-69
2023/08/05 10:46:07;;;;;;;2.95;1.58;;;21.50;97.60;;;;;;5073803;28;20036;-69
2023/08/05 10:48:47;;;;;;;2.42;1.60;;;21.90;98.10;;;;;;5072134;28;20045;-70
2023/08/05 10:51:24;;;;;;;2.03;1.40;;;21.50;96.30;;;;;;5054128;28;20052;-69
2023/08/05 10:53:56;;;;;;;4.07;1.98;;;21.60;97.50;;;;;;5073653;28;20040;-70
2023/08/05 10:56:35;;;;;;;2.78;1.60;;;21.50;97.60;;;;;;5063081;28;20041;-69
2023/08/05 10:59:02;;;;;;;2.78;1.58;;;21.30;97.60;;;;;;5071294;28;20041;-73
2023/08/05 11:01:56;;;;;;;1.98;1.40;;;21.30;99.00;;;;;;5065373;28;20047;-72
2023/08/05 11:04:29;;;;;;;2.15;1.58;;;21.40;98.10;;;;;;5073418;28;20040;-73
2023/08/05 11:06:55;;;;;;;;;;;21.40;97.70;;;;;;5072433;28;20037;-73
2023/08/05 11:09:22;;;;;;;4.40;1.73;;;21.10;99.20;;;;;;5055793;28;19983;-73
2023/08/05 11:11:48;;;;;;;3.92;1.70;;;20.90;99.90;;;;;;5072501;28;20101;-73
2023/08/05 11:14:16;;;;;;;4.93;2.00;;;20.80;99.90;;;;;;5072645;28;20044;-72
2023/08/05 11:16:48;;;;;;;4.20;2.00;;;20.80;99.90;;;;;;5072223;28;20403;-73
2023/08/05 11:19:15;;;;;;;3.30;1.70;;;21.00;99.90;;;;;;5072163;28;20094;-73
2023/08/05 11:21:44;;;;;;;2.17;1.50;;;20.90;99.90;;;;;;5072278;28;20412;-72
2023/08/05 11:24:19;;;;;;;2.40;1.75;;;20.80;99.90;;;;;;5072445;28;20114;-73
2023/08/05 11:26:46;;;;;;;5.13;2.20;;;20.90;99.90;;;;;;5071841;28;20051;-73
2023/08/05 11:29:14;;;;;;;3.05;1.90;;;20.90;99.90;;;;;;5071919;28;20044;-73
2023/08/05 11:31:51;;;;;;;3.85;1.90;;;20.90;99.90;;;;;;5072217;28;20123;-73
2023/08/05 11:34:25;;;;;;;4.57;2.17;;;21.00;99.90;;;;;;5072241;28;20521;-73
2023/08/05 11:36:55;;;;;;;4.18;1.85;;;21.10;99.90;;;;;;5071918;28;20043;-73
2023/08/05 11:39:24;;;;;;;4.72;2.00;;;21.00;99.90;;;;;;5071885;28;20044;-72
2023/08/05 11:41:51;;;;;;;2.40;1.73;;;21.00;99.90;;;;;;5071846;28;20049;-73
2023/08/05 11:44:18;;;;;;;3.85;2.28;;;21.10;99.90;;;;;;5071774;28;20517;-73
2023/08/05 11:46:43;;;;;;;2.92;1.40;;;21.00;99.90;;;;;;5071861;28;20507;-73
2023/08/05 11:49:10;;;;;;;2.55;1.52;;;21.00;99.90;;;;;;5070653;28;20124;-73
2023/08/05 11:51:47;;;;;;;1.85;1.30;;;21.20;99.80;;;;;;5054957;28;20143;-73
2023/08/05 11:54:22;;;;;;;4.20;1.77;;;21.30;99.10;;;;;;5071899;28;20381;-73
2023/08/05 11:56:48;;;;;;;2.28;1.30;;;21.20;99.10;;;;;;5072799;28;20411;-73
2023/08/05 11:59:13;;;;;;;2.33;1.85;;;21.10;99.10;;;;;;5071300;28;20047;-73
2023/08/05 12:01:42;;;;;;;3.10;2.00;;;21.00;99.00;;;;;;5071763;28;20527;-73
2023/08/05 12:04:08;;;;;;;5.32;2.25;;;20.80;98.80;;;;;;5054780;28;20079;-73
2023/08/05 12:06:33;;;;;;;4.75;1.95;;;20.80;99.20;;;;;;5071518;28;20526;-73
2023/08/05 12:09:00;;;;;;;4.32;1.95;;;20.80;99.90;;;;;;5070962;28;20079;-73
2023/08/05 12:11:25;;;;;;;2.60;1.70;;;20.80;99.90;;;;;;5071151;28;20044;-73
2023/08/05 12:13:51;;;;;;;2.70;1.75;;;20.80;99.90;;;;;;5071240;28;20043;-74
2023/08/05 12:16:18;;;;;;;2.63;1.48;;;20.80;99.90;;;;;;5071364;28;20028;-74
2023/08/05 12:18:47;;;;;;;7.50;2.03;;;20.80;99.90;;;;;;5054548;28;20040;-73
2023/08/05 12:21:14;;;;;;;3.35;2.00;;;20.80;99.90;;;;;;5071109;28;20036;-73
2023/08/05 12:23:43;;;;;;;4.70;2.30;;;20.90;99.90;;;;;;5054339;28;20059;-73
2023/08/05 12:26:09;;;;;;;2.58;2.00;;;21.00;99.90;;;;;;5070923;28;20032;-73
2023/08/05 12:28:35;;;;;;;5.75;3.22;;;21.10;99.90;;;;;;5070553;28;20036;-73
2023/08/05 12:31:00;;;;;;;4.50;2.80;;;21.10;99.90;;;;;;5070802;28;20043;-73
2023/08/05 12:33:27;;;;;;;5.50;2.58;;;21.00;99.90;;;;;;5070712;28;20044;-73
2023/08/05 12:35:53;;;;;;;5.20;3.10;;;20.90;99.90;;;;;;5070925;28;20051;-73
2023/08/05 12:38:19;;;;;;;3.58;2.85;;;21.00;99.90;;;;;;5053784;28;20040;-73
2023/08/05 12:40:44;;;;;;;4.10;2.88;;;20.90;99.90;;;;;;5071005;28;20679;-73
2023/08/05 12:43:12;;;;;;;5.78;3.75;;;20.90;99.90;;;;;;5070987;28;20492;-73
2023/08/05 12:45:38;;;;;;;4.80;3.33;;;20.80;99.90;;;;;;5070661;28;20094;-73